sensor_id;sensor_type;location;lat;lon;timestamp;pressure;altitude;pressure_sealevel;temperature;humidity
30856;BME280;17570;0.000;0.000;2023-04-02T00:01:46;95935.94;;;17.51;42.92
30856;BME280;17570;0.000;0.000;2023-04-02T00:04:14;95936.18;;;17.56;42.89
30856;BME280;17570;0.000;0.000;2023-04-02T00:06:44;95947.72;;;17.62;42.79
30856;BME280;17570;0.000;0.000;2023-04-02T00:09:16;95942.47;;;17.62;42.71
30856;BME280;17570;0.000;0.000;2023-04-02T00:11:44;95950.55;;;17.60;42.22
30856;BME280;17570;0.000;0.000;2023-04-02T00:14:18;95936.62;;;17.60;42.22
30856;BME280;17570;0.000;0.000;2023-04-02T00:16:45;95938.23;;;17.61;41.81
30856;BME280;17570;0.000;0.000;2023-04-02T00:19:18;95936.05;;;17.65;42.35
30856;BME280;17570;0.000;0.000;2023-04-02T00:21:44;95943.92;;;17.65;42.59
30856;BME280;17570;0.000;0.000;2023-04-02T00:24:13;95939.44;;;17.58;42.71
30856;BME280;17570;0.000;0.000;2023-04-02T00:26:47;95940.86;;;17.61;42.96
30856;BME280;17570;0.000;0.000;2023-04-02T00:29:11;95927.73;;;17.61;42.76
30856;BME280;17570;0.000;0.000;2023-04-02T00:31:40;95942.67;;;17.60;42.91
30856;BME280;17570;0.000;0.000;2023-04-02T00:34:13;95938.06;;;17.63;42.51
30856;BME280;17570;0.000;0.000;2023-04-02T00:36:37;95935.61;;;17.61;42.12
30856;BME280;17570;0.000;0.000;2023-04-02T00:39:09;95939.04;;;17.62;42.32
30856;BME280;17570;0.000;0.000;2023-04-02T00:41:36;95935.23;;;17.64;41.99
30856;BME280;17570;0.000;0.000;2023-04-02T00:44:04;95940.05;;;17.60;42.24
30856;BME280;17570;0.000;0.000;2023-04-02T00:46:32;95945.50;;;17.59;42.21
30856;BME280;17570;0.000;0.000;2023-04-02T00:49:11;95941.26;;;17.58;42.46
30856;BME280;17570;0.000;0.000;2023-04-02T00:51:43;95933.99;;;17.60;41.21
30856;BME280;17570;0.000;0.000;2023-04-02T00:54:11;95952.56;;;17.58;40.82
30856;BME280;17570;0.000;0.000;2023-04-02T00:56:43;95944.48;;;17.60;40.84
30856;BME280;17570;0.000;0.000;2023-04-02T00:59:28;95942.88;;;17.59;40.47
30856;BME280;17570;0.000;0.000;2023-04-02T01:02:00;95946.30;;;17.59;40.70
30856;BME280;17570;0.000;0.000;2023-04-02T01:04:35;95952.73;;;17.57;40.21
30856;BME280;17570;0.000;0.000;2023-04-02T01:07:05;95945.87;;;17.56;39.79
30856;BME280;17570;0.000;0.000;2023-04-02T01:09:52;95949.13;;;17.58;40.07
30856;BME280;17570;0.000;0.000;2023-04-02T01:12:29;95948.80;;;17.68;39.24
30856;BME280;17570;0.000;0.000;2023-04-02T01:15:12;95952.73;;;17.57;39.17
30856;BME280;17570;0.000;0.000;2023-04-02T01:22:54;95950.55;;;17.60;37.64
30856;BME280;17570;0.000;0.000;2023-04-02T01:25:23;95952.59;;;17.65;37.55
30856;BME280;17570;0.000;0.000;2023-04-02T01:27:50;95953.20;;;17.67;37.42
30856;BME280;17570;0.000;0.000;2023-04-02T01:30:17;95955.35;;;17.78;36.86
30856;BME280;17570;0.000;0.000;2023-04-02T01:32:45;95952.52;;;17.80;37.09
30856;BME280;17570;0.000;0.000;2023-04-02T01:35:13;95954.54;;;17.78;38.06
30856;BME280;17570;0.000;0.000;2023-04-02T01:37:45;95957.40;;;17.83;38.01
30856;BME280;17570;0.000;0.000;2023-04-02T01:40:34;95965.28;;;17.83;38.04
30856;BME280;17570;0.000;0.000;2023-04-02T01:45:47;95964.61;;;17.74;38.78
30856;BME280;17570;0.000;0.000;2023-04-02T01:48:20;95958.08;;;17.70;39.40
30856;BME280;17570;0.000;0.000;2023-04-02T01:50:47;95954.72;;;17.76;38.39
30856;BME280;17570;0.000;0.000;2023-04-02T01:53:17;95960.63;;;17.85;37.21
30856;BME280;17570;0.000;0.000;2023-04-02T01:55:50;95955.78;;;17.82;39.07
30856;BME280;17570;0.000;0.000;2023-04-02T01:58:20;95949.33;;;17.84;38.09
30856;BME280;17570;0.000;0.000;2023-04-02T02:01:03;95948.72;;;17.82;39.44
30856;BME280;17570;0.000;0.000;2023-04-02T02:03:41;95943.06;;;17.85;40.04
30856;BME280;17570;0.000;0.000;2023-04-02T02:06:04;95946.03;;;17.76;40.56
30856;BME280;17570;0.000;0.000;2023-04-02T02:11:01;95944.30;;;17.90;40.55
30856;BME280;17570;0.000;0.000;2023-04-02T02:13:29;95952.95;;;17.83;40.62
30856;BME280;17570;0.000;0.000;2023-04-02T02:16:00;95947.73;;;17.90;40.50
30856;BME280;17570;0.000;0.000;2023-04-02T02:18:29;95939.45;;;17.87;40.39
30856;BME280;17570;0.000;0.000;2023-04-02T02:20:57;95942.26;;;17.85;39.87
30856;BME280;17570;0.000;0.000;2023-04-02T02:23:26;95940.44;;;17.85;39.89
30856;BME280;17570;0.000;0.000;2023-04-02T02:25:55;95928.95;;;17.87;40.55
30856;BME280;17570;0.000;0.000;2023-04-02T02:28:24;95937.44;;;17.89;40.70
30856;BME280;17570;0.000;0.000;2023-04-02T02:31:01;95928.73;;;17.81;40.70
30856;BME280;17570;0.000;0.000;2023-04-02T02:33:31;95939.23;;;17.81;40.34
30856;BME280;17570;0.000;0.000;2023-04-02T02:36:13;95936.61;;;17.81;40.20
30856;BME280;17570;0.000;0.000;2023-04-02T02:38:52;95932.91;;;17.76;40.00
30856;BME280;17570;0.000;0.000;2023-04-02T02:43:54;95937.05;;;17.64;40.24
30856;BME280;17570;0.000;0.000;2023-04-02T02:46:20;95938.06;;;17.63;39.91
30856;BME280;17570;0.000;0.000;2023-04-02T02:48:49;95944.35;;;17.68;40.42
30856;BME280;17570;0.000;0.000;2023-04-02T02:51:24;95936.28;;;17.70;40.66
30856;BME280;17570;0.000;0.000;2023-04-02T02:53:52;95931.60;;;17.65;40.29
30856;BME280;17570;0.000;0.000;2023-04-02T02:56:20;95936.65;;;17.67;40.52
30856;BME280;17570;0.000;0.000;2023-04-02T02:58:50;95929.75;;;17.59;39.94
30856;BME280;17570;0.000;0.000;2023-04-02T03:01:20;95938.44;;;17.59;40.65
30856;BME280;17570;0.000;0.000;2023-04-02T03:03:51;95940.42;;;17.57;40.54
30856;BME280;17570;0.000;0.000;2023-04-02T03:06:19;95939.81;;;17.55;40.64
30856;BME280;17570;0.000;0.000;2023-04-02T03:11:34;95939.44;;;17.58;40.56
30856;BME280;17570;0.000;0.000;2023-04-02T03:14:01;95946.64;;;17.50;40.80
30856;BME280;17570;0.000;0.000;2023-04-02T03:16:36;95946.97;;;17.40;41.10
30856;BME280;17570;0.000;0.000;2023-04-02T03:21:51;95957.94;;;17.50;41.06
30856;BME280;17570;0.000;0.000;2023-04-02T03:24:28;95955.00;;;17.39;41.06
30856;BME280;17570;0.000;0.000;2023-04-02T03:26:54;95966.14;;;17.41;40.85
30856;BME280;17570;0.000;0.000;2023-04-02T03:29:28;95964.69;;;17.38;40.78
30856;BME280;17570;0.000;0.000;2023-04-02T03:32:02;95965.94;;;17.42;40.88
30856;BME280;17570;0.000;0.000;2023-04-02T03:34:27;95974.81;;;17.41;40.57
30856;BME280;17570;0.000;0.000;2023-04-02T03:36:59;95970.58;;;17.40;40.98
30856;BME280;17570;0.000;0.000;2023-04-02T03:42:21;95970.18;;;17.43;40.75
30856;BME280;17570;0.000;0.000;2023-04-02T03:44:57;95985.67;;;17.38;41.12
30856;BME280;17570;0.000;0.000;2023-04-02T03:47:32;95978.20;;;17.35;41.08
30856;BME280;17570;0.000;0.000;2023-04-02T03:52:39;95982.24;;;17.38;41.20
30856;BME280;17570;0.000;0.000;2023-04-02T03:55:10;95994.92;;;17.34;41.70
30856;BME280;17570;0.000;0.000;2023-04-02T03:57:40;95983.70;;;17.40;41.13
30856;BME280;17570;0.000;0.000;2023-04-02T04:02:55;95987.73;;;17.43;40.82
30856;BME280;17570;0.000;0.000;2023-04-02T04:05:22;95988.30;;;17.38;41.25
30856;BME280;17570;0.000;0.000;2023-04-02T04:07:50;95998.34;;;17.34;41.43
30856;BME280;17570;0.000;0.000;2023-04-02T04:10:26;95994.75;;;17.36;41.46
30856;BME280;17570;0.000;0.000;2023-04-02T04:12:51;95998.80;;;17.38;41.16
30856;BME280;17570;0.000;0.000;2023-04-02T04:15:21;96003.03;;;17.39;40.61
30856;BME280;17570;0.000;0.000;2023-04-02T04:17:59;96002.05;;;17.40;40.87
30856;BME280;17570;0.000;0.000;2023-04-02T04:20:43;96009.73;;;17.42;40.35
30856;BME280;17570;0.000;0.000;2023-04-02T04:23:46;96005.24;;;17.36;39.61
30856;BME280;17570;0.000;0.000;2023-04-02T04:25:55;96020.90;;;17.29;40.12
30856;BME280;17570;0.000;0.000;2023-04-02T04:28:21;96014.28;;;17.33;40.28
30856;BME280;17570;0.000;0.000;2023-04-02T04:33:37;96024.22;;;17.38;40.13
30856;BME280;17570;0.000;0.000;2023-04-02T04:36:05;96025.66;;;17.40;40.17
30856;BME280;17570;0.000;0.000;2023-04-02T04:38:34;96025.22;;;17.37;40.28
30856;BME280;17570;0.000;0.000;2023-04-02T04:41:10;96029.46;;;17.38;40.42
30856;BME280;17570;0.000;0.000;2023-04-02T04:46:13;96027.28;;;17.41;39.71
30856;BME280;17570;0.000;0.000;2023-04-02T04:48:49;96036.97;;;17.41;39.48
30856;BME280;17570;0.000;0.000;2023-04-02T04:51:24;96036.16;;;17.40;39.56
30856;BME280;17570;0.000;0.000;2023-04-02T04:53:53;96029.66;;;17.36;38.82
30856;BME280;17570;0.000;0.000;2023-04-02T04:56:24;96027.03;;;17.36;39.03
30856;BME280;17570;0.000;0.000;2023-04-02T05:04:24;96035.20;;;17.48;37.99
30856;BME280;17570;0.000;0.000;2023-04-02T05:07:03;96049.27;;;17.40;38.25
30856;BME280;17570;0.000;0.000;2023-04-02T05:09:34;96044.64;;;17.42;38.22
30856;BME280;17570;0.000;0.000;2023-04-02T05:12:15;96045.00;;;17.39;38.01
30856;BME280;17570;0.000;0.000;2023-04-02T05:14:40;96052.15;;;17.45;38.33
30856;BME280;17570;0.000;0.000;2023-04-02T05:19:45;96058.25;;;17.52;38.17
30856;BME280;17570;0.000;0.000;2023-04-02T05:22:36;96061.44;;;17.48;38.57
30856;BME280;17570;0.000;0.000;2023-04-02T05:27:35;96060.63;;;17.47;39.11
30856;BME280;17570;0.000;0.000;2023-04-02T05:30:05;96062.69;;;17.52;39.58
30856;BME280;17570;0.000;0.000;2023-04-02T05:32:31;96060.71;;;17.54;39.79
30856;BME280;17570;0.000;0.000;2023-04-02T05:35:01;96067.02;;;17.59;40.40
30856;BME280;17570;0.000;0.000;2023-04-02T05:37:32;96061.13;;;17.57;39.89
30856;BME280;17570;0.000;0.000;2023-04-02T05:40:04;96068.02;;;17.58;40.49
30856;BME280;17570;0.000;0.000;2023-04-02T05:42:33;96064.02;;;17.63;40.22
30856;BME280;17570;0.000;0.000;2023-04-02T05:45:22;96066.01;;;17.60;40.41
30856;BME280;17570;0.000;0.000;2023-04-02T05:47:49;96069.88;;;17.65;39.93
30856;BME280;17570;0.000;0.000;2023-04-02T05:50:22;96073.88;;;17.60;40.54
30856;BME280;17570;0.000;0.000;2023-04-02T05:52:55;96072.31;;;17.66;40.08
30856;BME280;17570;0.000;0.000;2023-04-02T05:55:36;96070.13;;;17.70;39.89
30856;BME280;17570;0.000;0.000;2023-04-02T05:58:11;96075.66;;;17.75;39.83
30856;BME280;17570;0.000;0.000;2023-04-02T06:03:30;96078.92;;;17.77;39.51
30856;BME280;17570;0.000;0.000;2023-04-02T06:05:39;96080.58;;;17.84;39.20
30856;BME280;17570;0.000;0.000;2023-04-02T06:08:13;96076.78;;;17.87;38.83
30856;BME280;17570;0.000;0.000;2023-04-02T06:10:49;96082.07;;;17.94;38.86
30856;BME280;17570;0.000;0.000;2023-04-02T06:13:15;96083.89;;;17.93;38.70
30856;BME280;17570;0.000;0.000;2023-04-02T06:15:43;96090.43;;;18.04;38.42
30856;BME280;17570;0.000;0.000;2023-04-02T06:18:14;96085.62;;;18.07;36.93
30856;BME280;17570;0.000;0.000;2023-04-02T06:20:44;96090.77;;;18.22;38.72
30856;BME280;17570;0.000;0.000;2023-04-02T06:23:17;96097.46;;;18.53;40.59
30856;BME280;17570;0.000;0.000;2023-04-02T06:25:54;96100.23;;;18.73;39.08
30856;BME280;17570;0.000;0.000;2023-04-02T06:28:18;96099.27;;;18.80;37.67
30856;BME280;17570;0.000;0.000;2023-04-02T06:30:52;96096.05;;;18.85;35.97
30856;BME280;17570;0.000;0.000;2023-04-02T06:33:21;96093.64;;;18.90;35.33
30856;BME280;17570;0.000;0.000;2023-04-02T06:35:48;96091.84;;;18.97;35.56
30856;BME280;17570;0.000;0.000;2023-04-02T06:38:21;96102.58;;;19.02;35.17
30856;BME280;17570;0.000;0.000;2023-04-02T06:40:56;96104.83;;;19.05;33.29
30856;BME280;17570;0.000;0.000;2023-04-02T06:43:40;96091.68;;;19.05;32.27
30856;BME280;17570;0.000;0.000;2023-04-02T06:46:22;96106.64;;;18.98;33.15
30856;BME280;17570;0.000;0.000;2023-04-02T06:49:11;96090.66;;;19.00;32.09
30856;BME280;17570;0.000;0.000;2023-04-02T06:51:35;96087.00;;;19.01;32.33
30856;BME280;17570;0.000;0.000;2023-04-02T06:54:04;96086.03;;;19.08;31.99
30856;BME280;17570;0.000;0.000;2023-04-02T06:56:37;96093.39;;;19.26;32.46
30856;BME280;17570;0.000;0.000;2023-04-02T06:59:01;96089.15;;;19.32;31.94
30856;BME280;17570;0.000;0.000;2023-04-02T07:01:31;96105.75;;;19.32;31.90
30856;BME280;17570;0.000;0.000;2023-04-02T07:03:59;96085.11;;;19.36;32.51
30856;BME280;17570;0.000;0.000;2023-04-02T07:06:28;96100.52;;;19.46;31.64
30856;BME280;17570;0.000;0.000;2023-04-02T07:08:58;96101.55;;;19.51;30.86
30856;BME280;17570;0.000;0.000;2023-04-02T07:11:25;96094.48;;;19.58;31.44
30856;BME280;17570;0.000;0.000;2023-04-02T07:13:55;96095.71;;;19.62;30.33
30856;BME280;17570;0.000;0.000;2023-04-02T07:16:24;96109.69;;;19.63;29.97
30856;BME280;17570;0.000;0.000;2023-04-02T07:18:53;96100.80;;;19.71;30.74
30856;BME280;17570;0.000;0.000;2023-04-02T07:21:24;96118.84;;;19.74;30.34
30856;BME280;17570;0.000;0.000;2023-04-02T07:23:52;96113.16;;;19.77;29.80
30856;BME280;17570;0.000;0.000;2023-04-02T07:26:23;96117.01;;;19.81;29.96
30856;BME280;17570;0.000;0.000;2023-04-02T07:28:53;96120.06;;;19.84;29.45
30856;BME280;17570;0.000;0.000;2023-04-02T07:31:26;96120.48;;;19.88;30.15
30856;BME280;17570;0.000;0.000;2023-04-02T07:33:51;96117.24;;;19.93;29.60
30856;BME280;17570;0.000;0.000;2023-04-02T07:36:20;96127.77;;;19.99;29.62
30856;BME280;17570;0.000;0.000;2023-04-02T07:38:48;96122.31;;;20.07;29.43
30856;BME280;17570;0.000;0.000;2023-04-02T07:41:16;96119.88;;;20.12;29.79
30856;BME280;17570;0.000;0.000;2023-04-02T07:43:45;96118.45;;;20.23;30.70
30856;BME280;17570;0.000;0.000;2023-04-02T07:46:13;96113.20;;;20.30;29.89
30856;BME280;17570;0.000;0.000;2023-04-02T07:48:42;96117.64;;;20.36;30.13
30856;BME280;17570;0.000;0.000;2023-04-02T07:51:19;96132.63;;;20.42;30.41
30856;BME280;17570;0.000;0.000;2023-04-02T07:53:42;96130.84;;;20.49;29.48
30856;BME280;17570;0.000;0.000;2023-04-02T07:56:14;96131.84;;;20.55;29.65
30856;BME280;17570;0.000;0.000;2023-04-02T07:58:39;96128.20;;;20.62;28.93
30856;BME280;17570;0.000;0.000;2023-04-02T08:01:12;96123.33;;;20.66;29.46
30856;BME280;17570;0.000;0.000;2023-04-02T08:03:36;96127.77;;;20.72;29.27
30856;BME280;17570;0.000;0.000;2023-04-02T08:06:03;96130.81;;;20.76;29.73
30856;BME280;17570;0.000;0.000;2023-04-02T08:08:32;96134.05;;;20.78;28.89
30856;BME280;17570;0.000;0.000;2023-04-02T08:10:59;96118.62;;;20.81;27.84
30856;BME280;17570;0.000;0.000;2023-04-02T08:13:27;96119.83;;;20.85;29.01
30856;BME280;17570;0.000;0.000;2023-04-02T08:15:56;96123.47;;;20.91;28.55
30856;BME280;17570;0.000;0.000;2023-04-02T08:18:23;96127.90;;;20.97;28.51
30856;BME280;17570;0.000;0.000;2023-04-02T08:20:50;96116.94;;;21.00;28.16
30856;BME280;17570;0.000;0.000;2023-04-02T08:23:19;96125.66;;;21.01;27.93
30856;BME280;17570;0.000;0.000;2023-04-02T08:25:47;96118.77;;;21.00;26.74
30856;BME280;17570;0.000;0.000;2023-04-02T08:28:14;96124.05;;;21.00;27.07
30856;BME280;17570;0.000;0.000;2023-04-02T08:30:42;96120.57;;;21.06;27.50
30856;BME280;17570;0.000;0.000;2023-04-02T08:33:10;96114.08;;;21.08;28.05
30856;BME280;17570;0.000;0.000;2023-04-02T08:35:37;96124.81;;;21.13;28.05
30856;BME280;17570;0.000;0.000;2023-04-02T08:38:05;96134.34;;;21.14;28.49
30856;BME280;17570;0.000;0.000;2023-04-02T08:45:41;96125.00;;;21.19;27.86
30856;BME280;17570;0.000;0.000;2023-04-02T08:48:06;96125.22;;;21.17;28.35
30856;BME280;17570;0.000;0.000;2023-04-02T08:50:37;96135.33;;;21.20;27.97
30856;BME280;17570;0.000;0.000;2023-04-02T08:53:18;96133.31;;;21.22;27.56
30856;BME280;17570;0.000;0.000;2023-04-02T08:58:26;96137.17;;;21.20;27.05
30856;BME280;17570;0.000;0.000;2023-04-02T09:00:53;96138.16;;;21.25;27.13
30856;BME280;17570;0.000;0.000;2023-04-02T09:05:51;96139.56;;;21.41;26.13
30856;BME280;17570;0.000;0.000;2023-04-02T09:08:22;96131.77;;;21.53;25.63
30856;BME280;17570;0.000;0.000;2023-04-02T09:11:07;96128.25;;;21.65;26.01
30856;BME280;17570;0.000;0.000;2023-04-02T09:13:35;96126.76;;;21.76;26.59
30856;BME280;17570;0.000;0.000;2023-04-02T09:18:33;96140.70;;;21.90;26.17
30856;BME280;17570;0.000;0.000;2023-04-02T09:21:12;96131.48;;;21.99;25.32
30856;BME280;17570;0.000;0.000;2023-04-02T09:23:30;96123.53;;;22.06;25.39
30856;BME280;17570;0.000;0.000;2023-04-02T09:25:57;96123.08;;;22.15;26.24
30856;BME280;17570;0.000;0.000;2023-04-02T09:28:25;96128.23;;;22.29;26.14
30856;BME280;17570;0.000;0.000;2023-04-02T09:30:58;96134.22;;;22.43;26.20
30856;BME280;17570;0.000;0.000;2023-04-02T09:33:41;96130.08;;;22.53;26.61
30856;BME280;17570;0.000;0.000;2023-04-02T09:36:52;96126.94;;;22.63;26.15
30856;BME280;17570;0.000;0.000;2023-04-02T09:38:42;96123.25;;;22.64;25.88
30856;BME280;17570;0.000;0.000;2023-04-02T09:41:20;96109.09;;;22.77;25.48
30856;BME280;17570;0.000;0.000;2023-04-02T09:43:40;96119.57;;;22.90;25.74
30856;BME280;17570;0.000;0.000;2023-04-02T09:46:22;96114.56;;;23.00;26.14
30856;BME280;17570;0.000;0.000;2023-04-02T09:48:51;96120.14;;;23.10;25.82
30856;BME280;17570;0.000;0.000;2023-04-02T09:51:26;96112.20;;;23.10;25.90
30856;BME280;17570;0.000;0.000;2023-04-02T09:56:23;96115.24;;;23.44;25.35
30856;BME280;17570;0.000;0.000;2023-04-02T10:01:35;96115.00;;;23.64;25.31
30856;BME280;17570;0.000;0.000;2023-04-02T10:04:05;96116.81;;;23.63;25.65
30856;BME280;17570;0.000;0.000;2023-04-02T10:06:33;96106.53;;;23.74;25.05
30856;BME280;17570;0.000;0.000;2023-04-02T10:09:18;96111.05;;;23.85;24.57
30856;BME280;17570;0.000;0.000;2023-04-02T10:11:35;96106.36;;;23.99;24.85
30856;BME280;17570;0.000;0.000;2023-04-02T10:14:20;96095.64;;;24.05;24.48
30856;BME280;17570;0.000;0.000;2023-04-02T10:16:49;96097.52;;;24.16;24.80
30856;BME280;17570;0.000;0.000;2023-04-02T10:19:29;96101.78;;;24.17;25.09
30856;BME280;17570;0.000;0.000;2023-04-02T10:21:58;96105.59;;;24.33;24.87
30856;BME280;17570;0.000;0.000;2023-04-02T10:24:26;96102.39;;;24.43;25.10
30856;BME280;17570;0.000;0.000;2023-04-02T10:27:03;96099.63;;;24.61;24.48
30856;BME280;17570;0.000;0.000;2023-04-02T10:29:33;96094.67;;;24.77;24.47
30856;BME280;17570;0.000;0.000;2023-04-02T10:31:59;96099.48;;;24.91;24.94
30856;BME280;17570;0.000;0.000;2023-04-02T10:34:33;96094.73;;;25.05;24.66
30856;BME280;17570;0.000;0.000;2023-04-02T10:37:00;96093.91;;;25.16;24.74
30856;BME280;17570;0.000;0.000;2023-04-02T10:39:33;96085.92;;;25.28;24.48
30856;BME280;17570;0.000;0.000;2023-04-02T10:42:05;96083.88;;;25.47;24.96
30856;BME280;17570;0.000;0.000;2023-04-02T10:44:38;96079.17;;;25.66;25.23
30856;BME280;17570;0.000;0.000;2023-04-02T10:47:05;96092.04;;;25.86;24.66
30856;BME280;17570;0.000;0.000;2023-04-02T10:49:41;96086.24;;;26.06;25.00
30856;BME280;17570;0.000;0.000;2023-04-02T10:52:11;96084.73;;;26.27;24.78
30856;BME280;17570;0.000;0.000;2023-04-02T10:57:35;96080.65;;;26.75;23.98
30856;BME280;17570;0.000;0.000;2023-04-02T11:05:15;96079.50;;;27.31;23.86
30856;BME280;17570;0.000;0.000;2023-04-02T11:07:56;96080.77;;;27.73;23.51
30856;BME280;17570;0.000;0.000;2023-04-02T11:10:24;96078.80;;;27.90;23.52
30856;BME280;17570;0.000;0.000;2023-04-02T11:14:51;96081.39;;;28.49;22.82
30856;BME280;17570;0.000;0.000;2023-04-02T11:17:20;96075.58;;;28.57;22.33
30856;BME280;17570;0.000;0.000;2023-04-02T11:19:47;96071.44;;;28.82;22.52
30856;BME280;17570;0.000;0.000;2023-04-02T15:08:12;96067.67;;;24.68;23.48
30856;BME280;17570;0.000;0.000;2023-04-02T15:10:57;96066.35;;;25.63;21.98
30856;BME280;17570;0.000;0.000;2023-04-02T15:13:24;96070.58;;;26.77;20.66
30856;BME280;17570;0.000;0.000;2023-04-02T15:16:04;96065.64;;;27.29;20.21
30856;BME280;17570;0.000;0.000;2023-04-02T15:18:28;96065.58;;;27.51;20.07
30856;BME280;17570;0.000;0.000;2023-04-02T15:21:08;96069.62;;;27.54;19.81
30856;BME280;17570;0.000;0.000;2023-04-02T15:23:40;96072.28;;;27.54;20.15
30856;BME280;17570;0.000;0.000;2023-04-02T15:26:08;96071.88;;;27.40;19.99
30856;BME280;17570;0.000;0.000;2023-04-02T15:28:37;96081.57;;;27.24;19.75
30856;BME280;17570;0.000;0.000;2023-04-02T15:31:05;96087.65;;;27.19;20.01
30856;BME280;17570;0.000;0.000;2023-04-02T15:33:38;96084.27;;;27.07;20.24
30856;BME280;17570;0.000;0.000;2023-04-02T15:38:41;96084.08;;;26.92;20.34
30856;BME280;17570;0.000;0.000;2023-04-02T16:08:32;96110.81;;;25.79;22.52
30856;BME280;17570;0.000;0.000;2023-04-02T16:10:58;96106.09;;;25.69;22.48
30856;BME280;17570;0.000;0.000;2023-04-02T16:13:29;96105.97;;;25.64;23.23
30856;BME280;17570;0.000;0.000;2023-04-02T16:16:00;96110.48;;;25.64;22.49
30856;BME280;17570;0.000;0.000;2023-04-02T16:18:35;96113.30;;;25.57;23.20
30856;BME280;17570;0.000;0.000;2023-04-02T16:21:01;96113.67;;;25.49;24.88
30856;BME280;17570;0.000;0.000;2023-04-02T16:23:33;96117.41;;;25.36;24.33
30856;BME280;17570;0.000;0.000;2023-04-02T16:28:48;96119.42;;;25.17;24.36
30856;BME280;17570;0.000;0.000;2023-04-02T16:34:00;96128.20;;;24.94;27.96
30856;BME280;17570;0.000;0.000;2023-04-02T16:36:50;96126.63;;;24.82;26.58
30856;BME280;17570;0.000;0.000;2023-04-02T16:41:56;96141.41;;;24.54;27.41
30856;BME280;17570;0.000;0.000;2023-04-02T16:44:30;96139.32;;;24.45;27.39
30856;BME280;17570;0.000;0.000;2023-04-02T16:49:32;96153.21;;;24.28;27.65
30856;BME280;17570;0.000;0.000;2023-04-02T16:55:09;96158.39;;;24.11;28.39
30856;BME280;17570;0.000;0.000;2023-04-02T16:57:35;96161.54;;;23.90;30.76
30856;BME280;17570;0.000;0.000;2023-04-02T17:05:24;96170.84;;;23.62;31.56
30856;BME280;17570;0.000;0.000;2023-04-02T17:07:54;96178.66;;;23.57;30.13
30856;BME280;17570;0.000;0.000;2023-04-02T17:15:25;96178.30;;;23.35;31.32
30856;BME280;17570;0.000;0.000;2023-04-02T17:17:53;96177.21;;;23.25;29.99
30856;BME280;17570;0.000;0.000;2023-04-02T17:20:22;96184.64;;;23.16;30.96
30856;BME280;17570;0.000;0.000;2023-04-02T17:22:50;96190.02;;;23.09;30.65
30856;BME280;17570;0.000;0.000;2023-04-02T17:25:32;96190.06;;;23.03;30.89
30856;BME280;17570;0.000;0.000;2023-04-02T17:28:00;96193.83;;;22.95;31.36
30856;BME280;17570;0.000;0.000;2023-04-02T17:30:34;96199.20;;;22.82;29.81
30856;BME280;17570;0.000;0.000;2023-04-02T17:33:15;96204.92;;;22.79;30.35
30856;BME280;17570;0.000;0.000;2023-04-02T17:35:47;96204.39;;;22.70;30.17
30856;BME280;17570;0.000;0.000;2023-04-02T17:40:54;96212.81;;;22.60;30.33
30856;BME280;17570;0.000;0.000;2023-04-02T17:43:34;96221.23;;;22.51;29.87
30856;BME280;17570;0.000;0.000;2023-04-02T17:46:12;96218.98;;;22.54;30.18
30856;BME280;17570;0.000;0.000;2023-04-02T17:53:55;96228.20;;;22.45;30.25
30856;BME280;17570;0.000;0.000;2023-04-02T17:56:27;96240.23;;;22.41;31.00
30856;BME280;17570;0.000;0.000;2023-04-02T17:59:03;96239.03;;;22.37;30.60
30856;BME280;17570;0.000;0.000;2023-04-02T18:01:33;96251.22;;;22.38;32.09
30856;BME280;17570;0.000;0.000;2023-04-02T18:09:39;96269.47;;;22.14;30.22
30856;BME280;17570;0.000;0.000;2023-04-02T18:12:12;96274.59;;;22.03;29.30
30856;BME280;17570;0.000;0.000;2023-04-02T18:19:54;96290.33;;;21.84;29.50
30856;BME280;17570;0.000;0.000;2023-04-02T18:22:25;96292.97;;;21.84;29.39
30856;BME280;17570;0.000;0.000;2023-04-02T18:25:09;96288.09;;;21.81;30.21
30856;BME280;17570;0.000;0.000;2023-04-02T18:27:33;96300.09;;;21.77;29.43
30856;BME280;17570;0.000;0.000;2023-04-02T18:33:02;96305.22;;;21.65;29.76
30856;BME280;17570;0.000;0.000;2023-04-02T18:35:30;96307.05;;;21.58;29.96
30856;BME280;17570;0.000;0.000;2023-04-02T18:37:59;96318.45;;;21.52;30.06
30856;BME280;17570;0.000;0.000;2023-04-02T18:40:29;96313.80;;;21.54;30.58
30856;BME280;17570;0.000;0.000;2023-04-02T18:45:34;96321.93;;;21.46;30.27
30856;BME280;17570;0.000;0.000;2023-04-02T18:50:46;96331.08;;;21.37;30.55
30856;BME280;17570;0.000;0.000;2023-04-02T18:53:16;96327.62;;;21.23;30.44
30856;BME280;17570;0.000;0.000;2023-04-02T18:55:49;96326.80;;;21.23;30.30
30856;BME280;17570;0.000;0.000;2023-04-02T18:58:19;96332.09;;;21.23;30.44
30856;BME280;17570;0.000;0.000;2023-04-02T19:00:45;96340.41;;;21.20;30.78
30856;BME280;17570;0.000;0.000;2023-04-02T19:05:59;96331.27;;;21.15;30.57
30856;BME280;17570;0.000;0.000;2023-04-02T19:08:48;96344.66;;;21.07;30.95
30856;BME280;17570;0.000;0.000;2023-04-02T19:11:13;96342.84;;;21.01;30.80
30856;BME280;17570;0.000;0.000;2023-04-02T19:13:41;96342.64;;;20.96;30.82
30856;BME280;17570;0.000;0.000;2023-04-02T19:16:27;96356.22;;;20.93;30.62
30856;BME280;17570;0.000;0.000;2023-04-02T19:19:04;96356.44;;;20.92;30.90
30856;BME280;17570;0.000;0.000;2023-04-02T19:29:59;96371.61;;;20.70;31.25
30856;BME280;17570;0.000;0.000;2023-04-02T19:32:43;96380.72;;;20.60;31.55
30856;BME280;17570;0.000;0.000;2023-04-02T19:35:26;96385.18;;;20.53;31.44
30856;BME280;17570;0.000;0.000;2023-04-02T19:37:56;96389.22;;;20.49;31.77
30856;BME280;17570;0.000;0.000;2023-04-02T19:40:41;96385.70;;;20.42;32.72
30856;BME280;17570;0.000;0.000;2023-04-02T19:43:09;96393.02;;;20.47;31.28
30856;BME280;17570;0.000;0.000;2023-04-02T19:45:38;96396.23;;;20.35;31.70
30856;BME280;17570;0.000;0.000;2023-04-02T19:48:13;96393.39;;;20.37;31.65
30856;BME280;17570;0.000;0.000;2023-04-02T19:50:37;96396.03;;;20.37;31.82
30856;BME280;17570;0.000;0.000;2023-04-02T19:53:06;96399.69;;;20.36;31.74
30856;BME280;17570;0.000;0.000;2023-04-02T19:55:33;96407.59;;;20.36;32.26
30856;BME280;17570;0.000;0.000;2023-04-02T19:58:01;96411.84;;;20.37;31.98
30856;BME280;17570;0.000;0.000;2023-04-02T20:00:32;96407.80;;;20.34;32.00
30856;BME280;17570;0.000;0.000;2023-04-02T20:02:59;96412.64;;;20.31;31.94